Time,TemperatureF,DewpointF,PressureIn,WindDirection,WindDirectionDegrees,WindSpeedMPH,WindSpeedGustMPH,Humidity,HourlyPrecipIn,Conditions,Clouds,dailyrainin,SolarRadiationWatts/m^2,SoftwareType,DateUTC
2013-05-09 00:12:00,66.0,64.0,-100.00,NNW,336,4.0,7.0,93,0.00,,,0.00,0.000000,,2013-05-09 10:12:00,
2013-05-09 00:22:00,66.0,64.0,-100.00,NNW,336,4.0,7.0,93,0.00,,,0.00,0.000000,,2013-05-09 10:22:00,
2013-05-09 00:33:00,66.0,64.0,-100.00,NNW,336,4.0,7.0,93,0.00,,,0.00,0.000000,,2013-05-09 10:33:00,
2013-05-09 00:42:00,66.0,64.0,-100.00,NNW,336,4.0,7.0,93,0.00,,,0.00,0.000000,,2013-05-09 10:42:00,
2013-05-09 01:12:00,65.0,62.0,-100.00,North,356,2.0,7.0,91,0.00,,,0.00,,,2013-05-09 11:12:00,
2013-05-09 01:22:00,65.0,62.0,-100.00,North,356,2.0,7.0,91,0.00,,,0.00,,,2013-05-09 11:22:00,
2013-05-09 01:32:00,65.0,62.0,-100.00,North,356,2.0,7.0,91,0.00,,,0.00,,,2013-05-09 11:32:00,
2013-05-09 01:41:00,65.0,62.0,-100.00,North,356,2.0,7.0,91,0.00,,,0.00,,,2013-05-09 11:41:00,
2013-05-09 02:11:00,66.0,63.0,-100.00,NNW,329,4.0,6.0,90,0.00,,,0.00,0.000000,,2013-05-09 12:11:00,
2013-05-09 02:22:00,66.0,63.0,-100.00,NNW,329,4.0,6.0,90,0.00,,,0.00,0.000000,,2013-05-09 12:22:00,
2013-05-09 02:31:00,66.0,63.0,-100.00,NNW,329,4.0,6.0,90,0.00,,,0.00,0.000000,,2013-05-09 12:31:00,
2013-05-09 02:42:00,66.0,63.0,-100.00,NNW,329,4.0,6.0,90,0.00,,,0.00,0.000000,,2013-05-09 12:42:00,
2013-05-09 03:12:00,67.0,64.0,-100.00,NNW,337,3.0,5.0,89,0.00,,,0.00,0.000000,,2013-05-09 13:12:00,
2013-05-09 03:21:00,67.0,64.0,-100.00,NNW,337,3.0,5.0,89,0.00,,,0.00,0.000000,,2013-05-09 13:21:00,
2013-05-09 03:32:00,67.0,64.0,-100.00,NNW,337,3.0,5.0,89,0.00,,,0.00,0.000000,,2013-05-09 13:32:00,
2013-05-09 03:42:00,67.0,64.0,-100.00,NNW,337,3.0,5.0,89,0.00,,,0.00,0.000000,,2013-05-09 13:42:00,
2013-05-09 05:11:00,66.0,64.0,-100.00,NW,326,3.0,5.0,93,-99.99,,,0.00,0.000000,,2013-05-09 15:11:00,
2013-05-09 05:21:00,66.0,64.0,-100.00,NW,326,3.0,5.0,93,-99.99,,,0.00,0.000000,,2013-05-09 15:21:00,
2013-05-09 05:33:00,66.0,64.0,-100.00,NW,326,3.0,5.0,93,-99.99,,,0.00,0.000000,,2013-05-09 15:33:00,
2013-05-09 05:43:00,66.0,64.0,-100.00,NW,326,3.0,5.0,93,-99.99,,,0.00,0.000000,,2013-05-09 15:43:00,
2013-05-09 06:12:00,64.0,61.0,-100.00,North,356,3.0,5.0,91,0.00,,,0.00,0.000000,,2013-05-09 16:12:00,
2013-05-09 06:22:00,64.0,61.0,-100.00,North,356,3.0,5.0,91,0.00,,,0.00,0.000000,,2013-05-09 16:22:00,
2013-05-09 06:33:00,64.0,61.0,-100.00,North,356,3.0,5.0,91,0.00,,,0.00,0.000000,,2013-05-09 16:33:00,
2013-05-09 06:42:00,64.0,61.0,-100.00,North,356,3.0,5.0,91,0.00,,,0.00,0.000000,,2013-05-09 16:42:00,
2013-05-09 07:12:00,67.0,64.0,-100.00,NW,322,4.0,7.0,90,0.00,,,0.00,26.000000,,2013-05-09 17:12:00,
2013-05-09 07:21:00,67.0,64.0,-100.00,NW,322,4.0,7.0,90,0.00,,,0.00,26.000000,,2013-05-09 17:21:00,
2013-05-09 07:32:00,67.0,64.0,-100.00,NW,322,4.0,7.0,90,0.00,,,0.00,26.000000,,2013-05-09 17:32:00,
2013-05-09 07:41:00,67.0,64.0,-100.00,NW,322,4.0,7.0,90,0.00,,,0.00,26.000000,,2013-05-09 17:41:00,
2013-05-09 08:12:00,72.0,65.0,-100.00,WSW,252,2.0,5.0,79,0.00,,,0.00,131.000000,,2013-05-09 18:12:00,
2013-05-09 08:21:00,72.0,65.0,-100.00,WSW,252,2.0,5.0,79,0.00,,,0.00,131.000000,,2013-05-09 18:21:00,
2013-05-09 08:31:00,72.0,65.0,-100.00,WSW,252,2.0,5.0,79,0.00,,,0.00,131.000000,,2013-05-09 18:31:00,
2013-05-09 08:42:00,72.0,65.0,-100.00,WSW,252,2.0,5.0,79,0.00,,,0.00,131.000000,,2013-05-09 18:42:00,
2013-05-09 09:11:00,73.0,66.0,-100.00,SE,144,0.0,4.0,79,0.00,,,0.00,218.000000,,2013-05-09 19:11:00,
2013-05-09 09:21:00,73.0,66.0,-100.00,SE,144,0.0,4.0,79,0.00,,,0.00,218.000000,,2013-05-09 19:21:00,
2013-05-09 09:31:00,73.0,66.0,-100.00,SE,144,0.0,4.0,79,0.00,,,0.00,218.000000,,2013-05-09 19:31:00,
2013-05-09 09:41:00,73.0,66.0,-100.00,SE,144,0.0,4.0,79,0.00,,,0.00,218.000000,,2013-05-09 19:41:00,
2013-05-09 10:11:00,73.0,69.0,-100.00,ESE,120,3.0,7.0,88,0.00,,,0.00,285.000000,,2013-05-09 20:11:00,
2013-05-09 10:22:00,73.0,69.0,-100.00,ESE,120,3.0,7.0,88,0.00,,,0.00,285.000000,,2013-05-09 20:22:00,
2013-05-09 10:32:00,73.0,69.0,-100.00,ESE,120,3.0,7.0,88,0.00,,,0.00,285.000000,,2013-05-09 20:32:00,
2013-05-09 10:42:00,73.0,69.0,-100.00,ESE,120,3.0,7.0,88,0.00,,,0.00,285.000000,,2013-05-09 20:42:00,
2013-05-09 11:11:00,73.0,69.0,-100.00,South,179,6.0,8.0,87,0.01,,,0.01,495.000000,,2013-05-09 21:11:00,
2013-05-09 11:22:00,73.0,69.0,-100.00,South,179,6.0,8.0,87,0.01,,,0.01,495.000000,,2013-05-09 21:22:00,
2013-05-09 11:32:00,73.0,69.0,-100.00,South,179,6.0,8.0,87,0.01,,,0.01,495.000000,,2013-05-09 21:32:00,
2013-05-09 11:42:00,73.0,69.0,-100.00,South,179,6.0,8.0,87,0.01,,,0.01,495.000000,,2013-05-09 21:42:00,
2013-05-09 12:12:00,74.0,71.0,-100.00,SE,139,4.0,8.0,91,0.05,,,0.06,515.000000,,2013-05-09 22:12:00,
2013-05-09 12:22:00,74.0,71.0,-100.00,SE,139,4.0,8.0,91,0.05,,,0.06,515.000000,,2013-05-09 22:22:00,
2013-05-09 12:32:00,74.0,71.0,-100.00,SE,139,4.0,8.0,91,0.05,,,0.06,515.000000,,2013-05-09 22:32:00,
2013-05-09 12:42:00,74.0,71.0,-100.00,SE,139,4.0,8.0,91,0.05,,,0.06,515.000000,,2013-05-09 22:42:00,
2013-05-09 13:12:00,73.0,70.0,-100.00,SE,141,4.0,9.0,90,0.02,,,0.08,293.000000,,2013-05-09 23:12:00,
2013-05-09 13:21:00,73.0,70.0,-100.00,SE,141,4.0,9.0,90,0.02,,,0.08,293.000000,,2013-05-09 23:21:00,
2013-05-09 13:32:00,73.0,70.0,-100.00,SE,141,4.0,9.0,90,0.02,,,0.08,293.000000,,2013-05-09 23:32:00,
2013-05-09 13:42:00,73.0,70.0,-100.00,SE,141,4.0,9.0,90,0.02,,,0.08,293.000000,,2013-05-09 23:42:00,
2013-05-09 14:11:00,74.0,69.0,-100.00,SSW,198,4.0,10.0,84,0.00,,,0.08,268.000000,,2013-05-10 00:11:00,
2013-05-09 14:22:00,74.0,69.0,-100.00,SSW,198,4.0,10.0,84,0.00,,,0.08,268.000000,,2013-05-10 00:22:00,
2013-05-09 14:32:00,74.0,69.0,-100.00,SSW,198,4.0,10.0,84,0.00,,,0.08,268.000000,,2013-05-10 00:32:00,
2013-05-09 14:42:00,74.0,69.0,-100.00,SSW,198,4.0,10.0,84,0.00,,,0.08,268.000000,,2013-05-10 00:42:00,
2013-05-09 15:11:00,71.0,69.0,-100.00,NW,319,2.0,7.0,95,0.08,,,0.16,126.000000,,2013-05-10 01:11:00,
2013-05-09 15:21:00,71.0,69.0,-100.00,NW,319,2.0,7.0,95,0.08,,,0.16,126.000000,,2013-05-10 01:21:00,
2013-05-09 15:31:00,71.0,69.0,-100.00,NW,319,2.0,7.0,95,0.08,,,0.16,126.000000,,2013-05-10 01:31:00,
2013-05-09 15:41:00,71.0,69.0,-100.00,NW,319,2.0,7.0,95,0.08,,,0.16,126.000000,,2013-05-10 01:41:00,
2013-05-09 16:11:00,70.0,68.0,-100.00,East,101,1.0,6.0,92,0.02,,,0.18,62.000000,,2013-05-10 02:11:00,
2013-05-09 16:21:00,70.0,68.0,-100.00,East,101,1.0,6.0,92,0.02,,,0.18,62.000000,,2013-05-10 02:21:00,
2013-05-09 16:31:00,70.0,68.0,-100.00,East,101,1.0,6.0,92,0.02,,,0.18,62.000000,,2013-05-10 02:31:00,
2013-05-09 16:42:00,70.0,68.0,-100.00,East,101,1.0,6.0,92,0.02,,,0.18,62.000000,,2013-05-10 02:42:00,
2013-05-09 17:11:00,70.0,68.0,-100.00,North,359,1.0,4.0,95,0.05,,,0.23,62.000000,,2013-05-10 03:11:00,
2013-05-09 17:21:00,70.0,68.0,-100.00,North,359,1.0,4.0,95,0.05,,,0.23,62.000000,,2013-05-10 03:21:00,
2013-05-09 17:32:00,70.0,68.0,-100.00,North,359,1.0,4.0,95,0.05,,,0.23,62.000000,,2013-05-10 03:32:00,
2013-05-09 17:43:00,70.0,68.0,-100.00,North,359,1.0,4.0,95,0.05,,,0.23,62.000000,,2013-05-10 03:43:00,
2013-05-09 18:12:00,69.0,68.0,-100.00,ENE,67,1.0,3.0,97,0.18,,,0.41,51.000000,,2013-05-10 04:12:00,
2013-05-09 18:23:00,69.0,68.0,-100.00,ENE,67,1.0,3.0,97,0.18,,,0.41,51.000000,,2013-05-10 04:23:00,
2013-05-09 18:33:00,69.0,68.0,-100.00,ENE,67,1.0,3.0,97,0.18,,,0.41,51.000000,,2013-05-10 04:33:00,
2013-05-09 18:42:00,69.0,68.0,-100.00,ENE,67,1.0,3.0,97,0.18,,,0.41,51.000000,,2013-05-10 04:42:00,
2013-05-09 19:12:00,69.0,68.0,-100.00,NNW,347,0.0,3.0,98,0.05,,,0.46,18.000000,,2013-05-10 05:12:00,
2013-05-09 19:22:00,69.0,68.0,-100.00,NNW,347,0.0,3.0,98,0.05,,,0.46,18.000000,,2013-05-10 05:22:00,
2013-05-09 19:32:00,69.0,68.0,-100.00,NNW,347,0.0,3.0,98,0.05,,,0.46,18.000000,,2013-05-10 05:32:00,
2013-05-09 19:42:00,69.0,68.0,-100.00,NNW,347,0.0,3.0,98,0.05,,,0.46,18.000000,,2013-05-10 05:42:00,
2013-05-09 20:12:00,69.0,68.0,-100.00,WNW,282,0.0,3.0,98,0.03,,,0.49,0.000000,,2013-05-10 06:12:00,
2013-05-09 20:21:00,69.0,68.0,-100.00,WNW,282,0.0,3.0,98,0.03,,,0.49,0.000000,,2013-05-10 06:21:00,
2013-05-09 20:32:00,69.0,68.0,-100.00,WNW,282,0.0,3.0,98,0.03,,,0.49,0.000000,,2013-05-10 06:32:00,
2013-05-09 20:41:00,69.0,68.0,-100.00,WNW,282,0.0,3.0,98,0.03,,,0.49,0.000000,,2013-05-10 06:41:00,
2013-05-09 21:11:00,69.0,69.0,-100.00,ENE,75,0.0,4.0,99,0.01,,,0.50,0.000000,,2013-05-10 07:11:00,
2013-05-09 21:22:00,69.0,69.0,-100.00,ENE,75,0.0,4.0,99,0.01,,,0.50,0.000000,,2013-05-10 07:22:00,
2013-05-09 21:31:00,69.0,69.0,-100.00,ENE,75,0.0,4.0,99,0.01,,,0.50,0.000000,,2013-05-10 07:31:00,
2013-05-09 21:41:00,69.0,69.0,-100.00,ENE,75,0.0,4.0,99,0.01,,,0.50,0.000000,,2013-05-10 07:41:00,
2013-05-09 22:12:00,69.0,69.0,-100.00,North,350,2.0,2.0,99,0.00,,,0.50,0.000000,,2013-05-10 08:12:00,
2013-05-09 22:21:00,69.0,69.0,-100.00,North,350,2.0,2.0,99,0.00,,,0.50,0.000000,,2013-05-10 08:21:00,
2013-05-09 22:32:00,69.0,69.0,-100.00,North,350,2.0,2.0,99,0.00,,,0.50,0.000000,,2013-05-10 08:32:00,
2013-05-09 22:41:00,69.0,69.0,-100.00,North,350,2.0,2.0,99,0.00,,,0.50,0.000000,,2013-05-10 08:41:00,
2013-05-09 23:11:00,69.0,69.0,-100.00,North,357,2.0,3.0,99,0.00,,,0.50,0.000000,,2013-05-10 09:11:00,
2013-05-09 23:21:00,69.0,69.0,-100.00,North,357,2.0,3.0,99,0.00,,,0.50,0.000000,,2013-05-10 09:21:00,
2013-05-09 23:32:00,69.0,69.0,-100.00,North,357,2.0,3.0,99,0.00,,,0.50,0.000000,,2013-05-10 09:32:00,
2013-05-09 23:42:00,69.0,69.0,-100.00,North,357,2.0,3.0,99,0.00,,,0.50,0.000000,,2013-05-10 09:42:00,